sensor_id;sensor_type;location;lat;lon;timestamp;temperature;humidity
21090;DHT22;10703;51.020;6.128;2023-04-07T00:01:12;8.80;99.90
21090;DHT22;10703;51.020;6.128;2023-04-07T00:03:39;8.90;99.90
21090;DHT22;10703;51.020;6.128;2023-04-07T00:06:06;8.80;99.90
21090;DHT22;10703;51.020;6.128;2023-04-07T00:08:33;8.80;99.90
21090;DHT22;10703;51.020;6.128;2023-04-07T00:11:00;8.80;99.90
21090;DHT22;10703;51.020;6.128;2023-04-07T00:13:26;8.70;99.90
21090;DHT22;10703;51.020;6.128;2023-04-07T00:15:54;8.70;99.90
21090;DHT22;10703;51.020;6.128;2023-04-07T00:18:21;8.70;99.90
21090;DHT22;10703;51.020;6.128;2023-04-07T00:20:48;8.70;99.90
21090;DHT22;10703;51.020;6.128;2023-04-07T00:23:14;8.70;99.90
21090;DHT22;10703;51.020;6.128;2023-04-07T00:25:41;8.70;99.90
21090;DHT22;10703;51.020;6.128;2023-04-07T00:28:08;8.70;99.90
21090;DHT22;10703;51.020;6.128;2023-04-07T00:30:34;8.70;99.90
21090;DHT22;10703;51.020;6.128;2023-04-07T00:33:01;8.70;99.90
21090;DHT22;10703;51.020;6.128;2023-04-07T00:35:27;8.70;99.90
21090;DHT22;10703;51.020;6.128;2023-04-07T00:37:54;8.70;99.90
21090;DHT22;10703;51.020;6.128;2023-04-07T00:40:21;8.70;99.90
21090;DHT22;10703;51.020;6.128;2023-04-07T00:42:47;8.70;99.90
21090;DHT22;10703;51.020;6.128;2023-04-07T00:45:14;8.70;99.90
21090;DHT22;10703;51.020;6.128;2023-04-07T00:47:41;8.60;99.90
21090;DHT22;10703;51.020;6.128;2023-04-07T00:50:08;8.60;99.90
21090;DHT22;10703;51.020;6.128;2023-04-07T00:52:35;8.60;99.90
21090;DHT22;10703;51.020;6.128;2023-04-07T00:55:01;8.60;99.90
21090;DHT22;10703;51.020;6.128;2023-04-07T00:57:28;8.50;99.90
21090;DHT22;10703;51.020;6.128;2023-04-07T00:59:55;8.50;99.90
21090;DHT22;10703;51.020;6.128;2023-04-07T01:02:25;8.50;99.90
21090;DHT22;10703;51.020;6.128;2023-04-07T01:05:15;8.50;99.90
21090;DHT22;10703;51.020;6.128;2023-04-07T01:08:23;8.50;99.90
21090;DHT22;10703;51.020;6.128;2023-04-07T01:10:55;8.50;99.90
21090;DHT22;10703;51.020;6.128;2023-04-07T01:13:33;8.50;99.90
21090;DHT22;10703;51.020;6.128;2023-04-07T01:16:04;8.50;99.90
21090;DHT22;10703;51.020;6.128;2023-04-07T01:18:36;8.50;99.90
21090;DHT22;10703;51.020;6.128;2023-04-07T01:21:06;8.50;99.90
21090;DHT22;10703;51.020;6.128;2023-04-07T01:26:34;8.40;99.90
21090;DHT22;10703;51.020;6.128;2023-04-07T01:29:33;8.40;99.90
21090;DHT22;10703;51.020;6.128;2023-04-07T01:32:02;8.40;99.90
21090;DHT22;10703;51.020;6.128;2023-04-07T01:34:30;8.40;99.90
21090;DHT22;10703;51.020;6.128;2023-04-07T01:37:00;8.50;99.90
21090;DHT22;10703;51.020;6.128;2023-04-07T01:39:28;8.60;99.90
21090;DHT22;10703;51.020;6.128;2023-04-07T01:41:56;8.60;99.90
21090;DHT22;10703;51.020;6.128;2023-04-07T01:44:24;8.60;99.90
21090;DHT22;10703;51.020;6.128;2023-04-07T01:46:53;8.60;99.90
21090;DHT22;10703;51.020;6.128;2023-04-07T01:49:21;8.60;99.90
21090;DHT22;10703;51.020;6.128;2023-04-07T01:51:49;8.60;99.90
21090;DHT22;10703;51.020;6.128;2023-04-07T01:54:17;8.60;99.90
21090;DHT22;10703;51.020;6.128;2023-04-07T01:56:44;8.60;99.90
21090;DHT22;10703;51.020;6.128;2023-04-07T01:59:11;8.60;99.90
21090;DHT22;10703;51.020;6.128;2023-04-07T02:01:37;8.60;99.90
21090;DHT22;10703;51.020;6.128;2023-04-07T02:04:23;8.60;99.90
21090;DHT22;10703;51.020;6.128;2023-04-07T02:06:54;8.50;99.90
21090;DHT22;10703;51.020;6.128;2023-04-07T02:09:23;8.50;99.90
21090;DHT22;10703;51.020;6.128;2023-04-07T02:11:53;8.50;99.90
21090;DHT22;10703;51.020;6.128;2023-04-07T02:14:21;8.50;99.90
21090;DHT22;10703;51.020;6.128;2023-04-07T02:16:50;8.50;99.90
21090;DHT22;10703;51.020;6.128;2023-04-07T02:19:18;8.50;99.90
21090;DHT22;10703;51.020;6.128;2023-04-07T02:21:46;8.60;99.90
21090;DHT22;10703;51.020;6.128;2023-04-07T02:24:17;8.50;99.90
21090;DHT22;10703;51.020;6.128;2023-04-07T02:26:44;8.50;99.90
21090;DHT22;10703;51.020;6.128;2023-04-07T02:29:11;8.50;99.90
21090;DHT22;10703;51.020;6.128;2023-04-07T02:31:38;8.40;99.90
21090;DHT22;10703;51.020;6.128;2023-04-07T02:34:04;8.40;99.90
21090;DHT22;10703;51.020;6.128;2023-04-07T02:36:31;8.40;99.90
21090;DHT22;10703;51.020;6.128;2023-04-07T02:38:57;8.40;99.90
21090;DHT22;10703;51.020;6.128;2023-04-07T02:41:24;8.30;99.90
21090;DHT22;10703;51.020;6.128;2023-04-07T02:43:51;8.40;99.90
21090;DHT22;10703;51.020;6.128;2023-04-07T02:46:19;8.20;99.90
21090;DHT22;10703;51.020;6.128;2023-04-07T02:48:45;8.30;99.90
21090;DHT22;10703;51.020;6.128;2023-04-07T02:51:12;8.30;99.90
21090;DHT22;10703;51.020;6.128;2023-04-07T02:53:38;8.30;99.90
21090;DHT22;10703;51.020;6.128;2023-04-07T02:56:05;8.20;99.90
21090;DHT22;10703;51.020;6.128;2023-04-07T02:58:32;8.20;99.90
21090;DHT22;10703;51.020;6.128;2023-04-07T03:00:58;8.10;99.90
21090;DHT22;10703;51.020;6.128;2023-04-07T03:03:25;8.20;99.90
21090;DHT22;10703;51.020;6.128;2023-04-07T03:05:52;8.20;99.90
21090;DHT22;10703;51.020;6.128;2023-04-07T03:08:19;8.20;99.90
21090;DHT22;10703;51.020;6.128;2023-04-07T03:10:45;8.20;99.90
21090;DHT22;10703;51.020;6.128;2023-04-07T03:13:12;8.20;99.90
21090;DHT22;10703;51.020;6.128;2023-04-07T03:15:41;8.20;99.90
21090;DHT22;10703;51.020;6.128;2023-04-07T03:18:09;8.10;99.90
21090;DHT22;10703;51.020;6.128;2023-04-07T03:20:36;8.20;99.90
21090;DHT22;10703;51.020;6.128;2023-04-07T03:23:03;8.10;99.90
21090;DHT22;10703;51.020;6.128;2023-04-07T03:25:30;8.10;99.90
21090;DHT22;10703;51.020;6.128;2023-04-07T03:27:56;8.10;99.90
21090;DHT22;10703;51.020;6.128;2023-04-07T03:30:23;8.20;99.90
21090;DHT22;10703;51.020;6.128;2023-04-07T03:32:50;8.10;99.90
21090;DHT22;10703;51.020;6.128;2023-04-07T03:35:16;8.10;99.90
21090;DHT22;10703;51.020;6.128;2023-04-07T03:37:43;8.10;99.90
21090;DHT22;10703;51.020;6.128;2023-04-07T03:40:10;8.10;99.90
21090;DHT22;10703;51.020;6.128;2023-04-07T03:42:36;8.10;99.90
21090;DHT22;10703;51.020;6.128;2023-04-07T03:45:03;8.10;99.90
21090;DHT22;10703;51.020;6.128;2023-04-07T03:47:30;8.10;99.90
21090;DHT22;10703;51.020;6.128;2023-04-07T03:49:56;8.10;99.90
21090;DHT22;10703;51.020;6.128;2023-04-07T03:52:23;8.00;99.90
21090;DHT22;10703;51.020;6.128;2023-04-07T03:54:49;8.00;99.90
21090;DHT22;10703;51.020;6.128;2023-04-07T03:57:16;8.00;99.90
21090;DHT22;10703;51.020;6.128;2023-04-07T03:59:43;8.00;99.90
21090;DHT22;10703;51.020;6.128;2023-04-07T04:02:09;8.00;99.90
21090;DHT22;10703;51.020;6.128;2023-04-07T04:04:36;8.00;99.90
21090;DHT22;10703;51.020;6.128;2023-04-07T04:07:03;8.00;99.90
21090;DHT22;10703;51.020;6.128;2023-04-07T04:09:29;8.00;99.90
21090;DHT22;10703;51.020;6.128;2023-04-07T04:11:56;8.00;99.90
21090;DHT22;10703;51.020;6.128;2023-04-07T04:14:23;8.00;99.90
21090;DHT22;10703;51.020;6.128;2023-04-07T04:16:49;8.00;99.90
21090;DHT22;10703;51.020;6.128;2023-04-07T04:19:16;8.00;99.90
21090;DHT22;10703;51.020;6.128;2023-04-07T04:21:42;7.90;99.90
21090;DHT22;10703;51.020;6.128;2023-04-07T04:24:09;8.00;99.90
21090;DHT22;10703;51.020;6.128;2023-04-07T04:26:36;7.90;99.90
21090;DHT22;10703;51.020;6.128;2023-04-07T04:29:02;7.90;99.90
21090;DHT22;10703;51.020;6.128;2023-04-07T04:31:29;7.90;99.90
21090;DHT22;10703;51.020;6.128;2023-04-07T04:33:55;7.90;99.90
21090;DHT22;10703;51.020;6.128;2023-04-07T04:36:22;7.80;99.90
21090;DHT22;10703;51.020;6.128;2023-04-07T04:38:48;7.80;99.90
21090;DHT22;10703;51.020;6.128;2023-04-07T04:41:15;7.80;99.90
21090;DHT22;10703;51.020;6.128;2023-04-07T04:43:41;7.80;99.90
21090;DHT22;10703;51.020;6.128;2023-04-07T04:46:08;7.80;99.90
21090;DHT22;10703;51.020;6.128;2023-04-07T04:48:35;7.80;99.90
21090;DHT22;10703;51.020;6.128;2023-04-07T04:51:01;7.80;99.90
21090;DHT22;10703;51.020;6.128;2023-04-07T04:53:28;7.80;99.90
21090;DHT22;10703;51.020;6.128;2023-04-07T04:55:55;7.80;99.90
21090;DHT22;10703;51.020;6.128;2023-04-07T04:58:21;7.70;99.90
21090;DHT22;10703;51.020;6.128;2023-04-07T05:00:48;7.70;99.90
21090;DHT22;10703;51.020;6.128;2023-04-07T05:03:14;7.70;99.90
21090;DHT22;10703;51.020;6.128;2023-04-07T05:05:41;7.70;99.90
21090;DHT22;10703;51.020;6.128;2023-04-07T05:08:10;7.70;99.90
21090;DHT22;10703;51.020;6.128;2023-04-07T05:10:39;7.70;99.90
21090;DHT22;10703;51.020;6.128;2023-04-07T05:13:06;7.70;99.90
21090;DHT22;10703;51.020;6.128;2023-04-07T05:15:33;7.60;99.90
21090;DHT22;10703;51.020;6.128;2023-04-07T05:17:59;7.70;99.90
21090;DHT22;10703;51.020;6.128;2023-04-07T05:20:26;7.70;99.90
21090;DHT22;10703;51.020;6.128;2023-04-07T05:22:52;7.70;99.90
21090;DHT22;10703;51.020;6.128;2023-04-07T05:25:19;7.70;99.90
21090;DHT22;10703;51.020;6.128;2023-04-07T05:27:46;7.70;99.90
21090;DHT22;10703;51.020;6.128;2023-04-07T05:30:12;7.60;99.90
21090;DHT22;10703;51.020;6.128;2023-04-07T05:32:39;7.70;99.90
21090;DHT22;10703;51.020;6.128;2023-04-07T05:35:06;7.60;99.90
21090;DHT22;10703;51.020;6.128;2023-04-07T05:37:33;7.60;99.90
21090;DHT22;10703;51.020;6.128;2023-04-07T05:39:59;7.60;99.90
21090;DHT22;10703;51.020;6.128;2023-04-07T05:42:26;7.60;99.90
21090;DHT22;10703;51.020;6.128;2023-04-07T05:44:52;7.60;99.90
21090;DHT22;10703;51.020;6.128;2023-04-07T05:47:19;7.60;99.90
21090;DHT22;10703;51.020;6.128;2023-04-07T05:49:45;7.60;99.90
21090;DHT22;10703;51.020;6.128;2023-04-07T05:52:13;7.60;99.90
21090;DHT22;10703;51.020;6.128;2023-04-07T05:54:39;7.60;99.90
21090;DHT22;10703;51.020;6.128;2023-04-07T05:57:06;7.60;99.90
21090;DHT22;10703;51.020;6.128;2023-04-07T05:59:34;7.60;99.90
21090;DHT22;10703;51.020;6.128;2023-04-07T06:02:01;7.70;99.90
21090;DHT22;10703;51.020;6.128;2023-04-07T06:04:28;7.70;99.90
21090;DHT22;10703;51.020;6.128;2023-04-07T06:06:54;7.70;99.90
21090;DHT22;10703;51.020;6.128;2023-04-07T06:09:21;7.70;99.90
21090;DHT22;10703;51.020;6.128;2023-04-07T06:11:48;7.70;99.90
21090;DHT22;10703;51.020;6.128;2023-04-07T06:14:15;7.80;99.90
21090;DHT22;10703;51.020;6.128;2023-04-07T06:16:42;7.80;99.90
21090;DHT22;10703;51.020;6.128;2023-04-07T06:19:09;7.70;99.90
21090;DHT22;10703;51.020;6.128;2023-04-07T06:21:35;7.80;99.90
21090;DHT22;10703;51.020;6.128;2023-04-07T06:24:02;7.80;99.90
21090;DHT22;10703;51.020;6.128;2023-04-07T06:26:28;7.80;99.90
21090;DHT22;10703;51.020;6.128;2023-04-07T06:28:57;7.80;99.90
21090;DHT22;10703;51.020;6.128;2023-04-07T06:31:24;7.90;99.90
21090;DHT22;10703;51.020;6.128;2023-04-07T06:33:50;7.90;99.90
21090;DHT22;10703;51.020;6.128;2023-04-07T06:36:17;8.00;99.90
21090;DHT22;10703;51.020;6.128;2023-04-07T06:38:44;7.90;99.90
21090;DHT22;10703;51.020;6.128;2023-04-07T06:41:10;7.90;99.90
21090;DHT22;10703;51.020;6.128;2023-04-07T06:43:46;7.90;99.90
21090;DHT22;10703;51.020;6.128;2023-04-07T06:46:13;7.90;99.90
21090;DHT22;10703;51.020;6.128;2023-04-07T06:48:40;7.90;99.90
21090;DHT22;10703;51.020;6.128;2023-04-07T06:51:06;7.90;99.90
21090;DHT22;10703;51.020;6.128;2023-04-07T06:53:33;7.90;99.90
21090;DHT22;10703;51.020;6.128;2023-04-07T06:56:07;7.90;99.90
21090;DHT22;10703;51.020;6.128;2023-04-07T06:58:35;8.00;99.90
21090;DHT22;10703;51.020;6.128;2023-04-07T07:01:03;8.00;99.90
21090;DHT22;10703;51.020;6.128;2023-04-07T07:03:31;8.00;99.90
21090;DHT22;10703;51.020;6.128;2023-04-07T07:05:58;8.00;99.90
21090;DHT22;10703;51.020;6.128;2023-04-07T07:08:26;8.00;99.90
21090;DHT22;10703;51.020;6.128;2023-04-07T07:10:53;8.00;99.90
21090;DHT22;10703;51.020;6.128;2023-04-07T07:13:22;8.00;99.90
21090;DHT22;10703;51.020;6.128;2023-04-07T07:15:49;8.10;99.90
21090;DHT22;10703;51.020;6.128;2023-04-07T07:18:17;8.20;99.90
21090;DHT22;10703;51.020;6.128;2023-04-07T07:20:44;8.20;99.90
21090;DHT22;10703;51.020;6.128;2023-04-07T07:23:10;8.30;99.90
21090;DHT22;10703;51.020;6.128;2023-04-07T07:25:37;8.40;99.90
21090;DHT22;10703;51.020;6.128;2023-04-07T07:28:03;8.40;99.90
21090;DHT22;10703;51.020;6.128;2023-04-07T07:30:33;8.40;99.90
21090;DHT22;10703;51.020;6.128;2023-04-07T07:33:00;8.50;99.90
21090;DHT22;10703;51.020;6.128;2023-04-07T07:35:26;8.60;99.90
21090;DHT22;10703;51.020;6.128;2023-04-07T07:37:53;8.70;99.90
21090;DHT22;10703;51.020;6.128;2023-04-07T07:40:20;8.80;99.90
21090;DHT22;10703;51.020;6.128;2023-04-07T07:42:46;8.80;99.90
21090;DHT22;10703;51.020;6.128;2023-04-07T07:45:13;8.80;99.90
21090;DHT22;10703;51.020;6.128;2023-04-07T07:47:40;8.80;99.90
21090;DHT22;10703;51.020;6.128;2023-04-07T07:50:07;8.80;99.90
21090;DHT22;10703;51.020;6.128;2023-04-07T07:52:34;8.80;99.90
21090;DHT22;10703;51.020;6.128;2023-04-07T07:55:01;8.80;99.90
21090;DHT22;10703;51.020;6.128;2023-04-07T07:57:27;8.70;99.90
21090;DHT22;10703;51.020;6.128;2023-04-07T07:59:56;8.70;99.90
21090;DHT22;10703;51.020;6.128;2023-04-07T08:02:23;8.80;99.90
21090;DHT22;10703;51.020;6.128;2023-04-07T08:04:56;8.80;99.90
21090;DHT22;10703;51.020;6.128;2023-04-07T08:07:23;8.70;99.90
21090;DHT22;10703;51.020;6.128;2023-04-07T08:09:50;8.80;99.90
21090;DHT22;10703;51.020;6.128;2023-04-07T08:12:16;8.80;99.90
21090;DHT22;10703;51.020;6.128;2023-04-07T08:14:43;8.90;99.90
21090;DHT22;10703;51.020;6.128;2023-04-07T08:17:10;8.90;99.90
21090;DHT22;10703;51.020;6.128;2023-04-07T08:19:37;8.80;99.90
21090;DHT22;10703;51.020;6.128;2023-04-07T08:22:04;8.90;99.90
21090;DHT22;10703;51.020;6.128;2023-04-07T08:24:30;8.90;99.90
21090;DHT22;10703;51.020;6.128;2023-04-07T08:26:57;9.00;99.90
21090;DHT22;10703;51.020;6.128;2023-04-07T08:29:24;9.10;99.90
21090;DHT22;10703;51.020;6.128;2023-04-07T08:31:50;9.30;99.90
21090;DHT22;10703;51.020;6.128;2023-04-07T08:34:17;9.40;99.90
21090;DHT22;10703;51.020;6.128;2023-04-07T08:36:46;9.40;99.90
21090;DHT22;10703;51.020;6.128;2023-04-07T08:39:12;9.50;99.90
21090;DHT22;10703;51.020;6.128;2023-04-07T08:41:40;9.50;99.90
21090;DHT22;10703;51.020;6.128;2023-04-07T08:44:07;9.50;99.90
21090;DHT22;10703;51.020;6.128;2023-04-07T08:46:38;9.50;99.90
21090;DHT22;10703;51.020;6.128;2023-04-07T08:49:09;9.50;99.90
21090;DHT22;10703;51.020;6.128;2023-04-07T08:51:37;9.50;99.90
21090;DHT22;10703;51.020;6.128;2023-04-07T08:54:12;9.60;99.90
21090;DHT22;10703;51.020;6.128;2023-04-07T08:56:40;9.80;99.90
21090;DHT22;10703;51.020;6.128;2023-04-07T08:59:09;9.80;99.90
21090;DHT22;10703;51.020;6.128;2023-04-07T09:01:36;10.00;99.90
21090;DHT22;10703;51.020;6.128;2023-04-07T09:04:03;10.10;99.90
21090;DHT22;10703;51.020;6.128;2023-04-07T09:06:31;10.20;99.90
21090;DHT22;10703;51.020;6.128;2023-04-07T09:08:58;10.10;99.90
21090;DHT22;10703;51.020;6.128;2023-04-07T09:11:29;10.30;99.90
21090;DHT22;10703;51.020;6.128;2023-04-07T09:13:56;10.30;99.90
21090;DHT22;10703;51.020;6.128;2023-04-07T09:16:24;10.10;99.90
21090;DHT22;10703;51.020;6.128;2023-04-07T09:18:54;10.20;99.90
21090;DHT22;10703;51.020;6.128;2023-04-07T09:21:20;10.40;99.90
21090;DHT22;10703;51.020;6.128;2023-04-07T09:23:47;10.40;99.90
21090;DHT22;10703;51.020;6.128;2023-04-07T09:28:45;10.60;99.90
21090;DHT22;10703;51.020;6.128;2023-04-07T09:31:12;10.70;99.90
21090;DHT22;10703;51.020;6.128;2023-04-07T09:33:39;10.50;99.90
21090;DHT22;10703;51.020;6.128;2023-04-07T09:36:06;10.50;99.90
21090;DHT22;10703;51.020;6.128;2023-04-07T09:38:35;10.50;99.90
21090;DHT22;10703;51.020;6.128;2023-04-07T09:41:13;10.10;99.90
21090;DHT22;10703;51.020;6.128;2023-04-07T09:43:45;10.30;99.90
21090;DHT22;10703;51.020;6.128;2023-04-07T09:46:13;10.10;99.90
21090;DHT22;10703;51.020;6.128;2023-04-07T09:48:41;10.20;99.90
21090;DHT22;10703;51.020;6.128;2023-04-07T09:51:13;10.20;99.90
21090;DHT22;10703;51.020;6.128;2023-04-07T09:53:46;10.10;99.90
21090;DHT22;10703;51.020;6.128;2023-04-07T09:56:16;10.10;99.90
21090;DHT22;10703;51.020;6.128;2023-04-07T09:58:45;10.10;99.90
21090;DHT22;10703;51.020;6.128;2023-04-07T10:01:13;10.30;99.90
21090;DHT22;10703;51.020;6.128;2023-04-07T10:03:40;10.50;99.90
21090;DHT22;10703;51.020;6.128;2023-04-07T10:06:06;10.80;99.90
21090;DHT22;10703;51.020;6.128;2023-04-07T10:08:35;10.90;99.90
21090;DHT22;10703;51.020;6.128;2023-04-07T10:11:04;11.00;99.90
21090;DHT22;10703;51.020;6.128;2023-04-07T10:13:35;10.90;99.90
21090;DHT22;10703;51.020;6.128;2023-04-07T10:16:04;10.90;99.90
21090;DHT22;10703;51.020;6.128;2023-04-07T10:18:33;10.80;99.90
21090;DHT22;10703;51.020;6.128;2023-04-07T10:21:02;10.70;99.90
21090;DHT22;10703;51.020;6.128;2023-04-07T10:24:04;10.60;99.90
21090;DHT22;10703;51.020;6.128;2023-04-07T10:26:36;10.60;99.90
21090;DHT22;10703;51.020;6.128;2023-04-07T10:29:08;10.60;99.90
21090;DHT22;10703;51.020;6.128;2023-04-07T10:31:37;10.80;99.90
21090;DHT22;10703;51.020;6.128;2023-04-07T10:34:04;10.90;99.90
21090;DHT22;10703;51.020;6.128;2023-04-07T10:36:31;11.00;99.90
21090;DHT22;10703;51.020;6.128;2023-04-07T10:41:36;11.20;99.90
21090;DHT22;10703;51.020;6.128;2023-04-07T10:44:04;11.30;99.90
21090;DHT22;10703;51.020;6.128;2023-04-07T10:49:11;11.20;99.90
21090;DHT22;10703;51.020;6.128;2023-04-07T10:51:39;10.90;99.90
21090;DHT22;10703;51.020;6.128;2023-04-07T10:54:19;10.80;99.90
21090;DHT22;10703;51.020;6.128;2023-04-07T10:57:06;10.80;99.90
21090;DHT22;10703;51.020;6.128;2023-04-07T11:02:38;10.70;99.90
21090;DHT22;10703;51.020;6.128;2023-04-07T11:05:06;10.80;99.90
21090;DHT22;10703;51.020;6.128;2023-04-07T11:07:50;11.00;99.90
21090;DHT22;10703;51.020;6.128;2023-04-07T11:10:17;11.30;99.90
21090;DHT22;10703;51.020;6.128;2023-04-07T11:13:00;11.40;99.90
21090;DHT22;10703;51.020;6.128;2023-04-07T11:15:27;11.40;99.90
21090;DHT22;10703;51.020;6.128;2023-04-07T11:20:51;11.50;99.90
21090;DHT22;10703;51.020;6.128;2023-04-07T11:23:20;11.50;99.90
21090;DHT22;10703;51.020;6.128;2023-04-07T11:25:51;11.50;99.90
21090;DHT22;10703;51.020;6.128;2023-04-07T11:28:19;11.70;99.90
21090;DHT22;10703;51.020;6.128;2023-04-07T11:30:49;11.60;99.90
21090;DHT22;10703;51.020;6.128;2023-04-07T11:33:19;11.60;99.90
21090;DHT22;10703;51.020;6.128;2023-04-07T11:35:52;11.70;99.90
21090;DHT22;10703;51.020;6.128;2023-04-07T11:38:23;11.50;99.90
21090;DHT22;10703;51.020;6.128;2023-04-07T11:40:51;11.40;99.90
21090;DHT22;10703;51.020;6.128;2023-04-07T11:43:26;11.50;99.90
21090;DHT22;10703;51.020;6.128;2023-04-07T11:46:07;11.60;99.90
21090;DHT22;10703;51.020;6.128;2023-04-07T11:48:35;11.70;99.90
21090;DHT22;10703;51.020;6.128;2023-04-07T11:51:02;11.90;99.90
21090;DHT22;10703;51.020;6.128;2023-04-07T11:53:34;12.10;99.90
21090;DHT22;10703;51.020;6.128;2023-04-07T11:56:07;12.10;99.90
21090;DHT22;10703;51.020;6.128;2023-04-07T11:58:36;12.20;99.90
21090;DHT22;10703;51.020;6.128;2023-04-07T12:01:04;12.20;99.90
21090;DHT22;10703;51.020;6.128;2023-04-07T12:03:35;12.10;99.90
21090;DHT22;10703;51.020;6.128;2023-04-07T12:06:03;12.20;99.90
21090;DHT22;10703;51.020;6.128;2023-04-07T12:08:43;12.10;99.90
21090;DHT22;10703;51.020;6.128;2023-04-07T12:11:09;12.00;99.90
21090;DHT22;10703;51.020;6.128;2023-04-07T12:13:36;11.90;99.90
21090;DHT22;10703;51.020;6.128;2023-04-07T12:16:03;11.80;99.90
21090;DHT22;10703;51.020;6.128;2023-04-07T12:18:30;11.90;99.90
21090;DHT22;10703;51.020;6.128;2023-04-07T12:20:57;11.70;99.90
21090;DHT22;10703;51.020;6.128;2023-04-07T12:23:24;11.60;99.90
21090;DHT22;10703;51.020;6.128;2023-04-07T12:25:51;11.40;99.90
21090;DHT22;10703;51.020;6.128;2023-04-07T12:28:18;11.20;99.90
21090;DHT22;10703;51.020;6.128;2023-04-07T12:30:44;10.80;99.90
21090;DHT22;10703;51.020;6.128;2023-04-07T12:33:11;10.50;99.90
21090;DHT22;10703;51.020;6.128;2023-04-07T12:35:38;10.30;99.90
21090;DHT22;10703;51.020;6.128;2023-04-07T12:38:04;10.30;99.90
21090;DHT22;10703;51.020;6.128;2023-04-07T12:40:31;10.30;99.90
21090;DHT22;10703;51.020;6.128;2023-04-07T12:42:57;10.30;99.90
21090;DHT22;10703;51.020;6.128;2023-04-07T12:45:24;10.40;99.90
21090;DHT22;10703;51.020;6.128;2023-04-07T12:47:51;10.60;99.90
21090;DHT22;10703;51.020;6.128;2023-04-07T12:50:17;10.80;99.90
21090;DHT22;10703;51.020;6.128;2023-04-07T12:52:44;11.00;99.90
21090;DHT22;10703;51.020;6.128;2023-04-07T12:55:12;11.10;99.90
21090;DHT22;10703;51.020;6.128;2023-04-07T12:57:39;11.30;99.90
21090;DHT22;10703;51.020;6.128;2023-04-07T13:00:06;11.40;99.90
21090;DHT22;10703;51.020;6.128;2023-04-07T13:02:33;11.70;99.90
21090;DHT22;10703;51.020;6.128;2023-04-07T13:05:02;11.90;99.90
21090;DHT22;10703;51.020;6.128;2023-04-07T13:07:30;12.20;99.90
21090;DHT22;10703;51.020;6.128;2023-04-07T13:09:56;12.50;99.90
21090;DHT22;10703;51.020;6.128;2023-04-07T13:12:23;12.80;99.90
21090;DHT22;10703;51.020;6.128;2023-04-07T13:14:49;13.00;99.90
21090;DHT22;10703;51.020;6.128;2023-04-07T13:17:25;12.80;99.90
21090;DHT22;10703;51.020;6.128;2023-04-07T13:19:52;13.10;99.90
21090;DHT22;10703;51.020;6.128;2023-04-07T13:22:19;13.20;99.90
21090;DHT22;10703;51.020;6.128;2023-04-07T13:24:48;13.00;99.90
21090;DHT22;10703;51.020;6.128;2023-04-07T13:27:15;13.00;99.90
21090;DHT22;10703;51.020;6.128;2023-04-07T13:29:42;13.10;99.90
21090;DHT22;10703;51.020;6.128;2023-04-07T13:32:09;12.90;99.90
21090;DHT22;10703;51.020;6.128;2023-04-07T13:34:38;12.80;99.90
21090;DHT22;10703;51.020;6.128;2023-04-07T13:37:05;12.60;99.90
21090;DHT22;10703;51.020;6.128;2023-04-07T13:39:32;12.20;99.90
21090;DHT22;10703;51.020;6.128;2023-04-07T13:41:59;12.10;99.90
21090;DHT22;10703;51.020;6.128;2023-04-07T13:44:27;11.90;99.90
21090;DHT22;10703;51.020;6.128;2023-04-07T13:46:55;11.70;99.90
21090;DHT22;10703;51.020;6.128;2023-04-07T13:49:22;11.50;99.90
21090;DHT22;10703;51.020;6.128;2023-04-07T13:51:48;11.40;99.90
21090;DHT22;10703;51.020;6.128;2023-04-07T13:54:15;11.30;99.90
21090;DHT22;10703;51.020;6.128;2023-04-07T13:56:44;11.40;99.90
21090;DHT22;10703;51.020;6.128;2023-04-07T13:59:10;11.50;99.90
21090;DHT22;10703;51.020;6.128;2023-04-07T14:01:37;11.60;99.90
21090;DHT22;10703;51.020;6.128;2023-04-07T14:04:05;11.90;99.90
21090;DHT22;10703;51.020;6.128;2023-04-07T14:06:32;12.30;99.90
21090;DHT22;10703;51.020;6.128;2023-04-07T14:08:58;12.50;99.90
21090;DHT22;10703;51.020;6.128;2023-04-07T14:11:25;12.80;99.90
21090;DHT22;10703;51.020;6.128;2023-04-07T14:13:53;12.80;99.90
21090;DHT22;10703;51.020;6.128;2023-04-07T14:16:20;12.90;99.90
21090;DHT22;10703;51.020;6.128;2023-04-07T14:18:47;12.60;99.90
21090;DHT22;10703;51.020;6.128;2023-04-07T14:21:14;12.40;99.90
21090;DHT22;10703;51.020;6.128;2023-04-07T14:23:41;12.00;99.90
21090;DHT22;10703;51.020;6.128;2023-04-07T14:26:11;11.70;99.90
21090;DHT22;10703;51.020;6.128;2023-04-07T14:28:38;11.30;99.90
21090;DHT22;10703;51.020;6.128;2023-04-07T14:31:05;11.00;99.90
21090;DHT22;10703;51.020;6.128;2023-04-07T14:33:32;10.90;99.90
21090;DHT22;10703;51.020;6.128;2023-04-07T14:35:59;10.70;99.90
21090;DHT22;10703;51.020;6.128;2023-04-07T14:38:25;10.50;99.90
21090;DHT22;10703;51.020;6.128;2023-04-07T14:40:52;10.20;99.90
21090;DHT22;10703;51.020;6.128;2023-04-07T14:43:19;10.20;99.90
21090;DHT22;10703;51.020;6.128;2023-04-07T14:45:45;10.00;99.90
21090;DHT22;10703;51.020;6.128;2023-04-07T14:48:12;9.90;99.90
21090;DHT22;10703;51.020;6.128;2023-04-07T14:50:39;9.80;99.90
21090;DHT22;10703;51.020;6.128;2023-04-07T14:53:05;9.80;99.90
21090;DHT22;10703;51.020;6.128;2023-04-07T14:55:32;9.80;99.90
21090;DHT22;10703;51.020;6.128;2023-04-07T14:57:59;9.80;99.90
21090;DHT22;10703;51.020;6.128;2023-04-07T15:00:26;9.70;99.90
21090;DHT22;10703;51.020;6.128;2023-04-07T15:02:54;9.70;99.90
21090;DHT22;10703;51.020;6.128;2023-04-07T15:05:21;9.60;99.90
21090;DHT22;10703;51.020;6.128;2023-04-07T15:07:48;9.50;99.90
21090;DHT22;10703;51.020;6.128;2023-04-07T15:10:18;9.50;99.90
21090;DHT22;10703;51.020;6.128;2023-04-07T15:12:46;9.50;99.90
21090;DHT22;10703;51.020;6.128;2023-04-07T15:15:13;9.50;99.90
21090;DHT22;10703;51.020;6.128;2023-04-07T15:17:40;9.60;99.90
21090;DHT22;10703;51.020;6.128;2023-04-07T15:20:10;9.60;99.90
21090;DHT22;10703;51.020;6.128;2023-04-07T15:22:38;9.70;99.90
21090;DHT22;10703;51.020;6.128;2023-04-07T15:25:04;9.70;99.90
21090;DHT22;10703;51.020;6.128;2023-04-07T15:27:31;9.60;99.90
21090;DHT22;10703;51.020;6.128;2023-04-07T15:29:57;9.70;99.90
21090;DHT22;10703;51.020;6.128;2023-04-07T15:32:24;9.70;99.90
21090;DHT22;10703;51.020;6.128;2023-04-07T15:34:51;9.80;99.90
21090;DHT22;10703;51.020;6.128;2023-04-07T15:37:18;9.70;99.90
21090;DHT22;10703;51.020;6.128;2023-04-07T15:39:44;9.80;99.90
21090;DHT22;10703;51.020;6.128;2023-04-07T15:42:11;9.80;99.90
21090;DHT22;10703;51.020;6.128;2023-04-07T15:44:38;9.90;99.90
21090;DHT22;10703;51.020;6.128;2023-04-07T15:47:05;9.90;99.90
21090;DHT22;10703;51.020;6.128;2023-04-07T15:49:33;10.10;99.90
21090;DHT22;10703;51.020;6.128;2023-04-07T15:51:59;10.10;99.90
21090;DHT22;10703;51.020;6.128;2023-04-07T15:54:29;10.10;99.90
21090;DHT22;10703;51.020;6.128;2023-04-07T15:56:56;10.10;99.90
21090;DHT22;10703;51.020;6.128;2023-04-07T15:59:22;10.10;99.90
21090;DHT22;10703;51.020;6.128;2023-04-07T16:01:50;10.00;99.90